Time;durP1;ratioP1;P1;durP2;ratioP2;P2;SDS_P1;SDS_P2;PMS_P1;PMS_P2;Temp;Humidity;BMP_temperature;BMP_pressure;BME280_temperature;BME280_humidity;BME280_pressure;Samples;Min_cycle;Max_cycle;Signal;HPM_P1;HPM_P2
2022/01/28 00:00:18;;;;;;;23.50;3.58;;;;;;;3.47;100.00;102830.56;5094398;28;20043;-75
2022/01/28 00:05:41;;;;;;;25.02;3.58;;;;;;;3.29;100.00;102845.97;5043910;28;20037;-73
2022/01/28 00:08:06;;;;;;;24.85;3.83;;;;;;;3.17;100.00;102852.09;5042485;28;20033;-75
2022/01/28 00:10:33;;;;;;;23.55;3.90;;;;;;;3.11;100.00;102858.72;5045279;28;20068;-75
2022/01/28 00:15:49;;;;;;;23.08;3.60;;;;;;;3.19;100.00;102869.69;5045550;28;20474;-73
2022/01/28 00:39:33;;;;;;;22.08;3.65;;;;;;;2.94;100.00;102888.03;5044743;28;20067;-77
2022/01/28 00:41:58;;;;;;;22.08;4.00;;;;;;;2.97;100.00;102883.94;5077278;28;20474;-77
2022/01/28 00:44:24;;;;;;;24.13;3.88;;;;;;;2.92;100.00;102876.56;5094860;28;20025;-77
2022/01/28 00:46:49;;;;;;;26.27;3.92;;;;;;;2.88;100.00;102880.66;5095006;28;20020;-77
2022/01/28 00:49:15;;;;;;;25.42;4.22;;;;;;;2.90;100.00;102875.56;5095063;28;20035;-77
2022/01/28 00:51:40;;;;;;;25.67;4.15;;;;;;;2.99;100.00;102876.19;5093644;28;20040;-77
2022/01/28 00:54:05;;;;;;;23.27;3.53;;;;;;;3.02;100.00;102870.28;5094786;28;20031;-74
2022/01/28 00:56:31;;;;;;;22.73;3.50;;;;;;;3.13;100.00;102879.72;5095205;28;20509;-77
2022/01/28 00:58:56;;;;;;;22.38;3.50;;;;;;;3.20;100.00;102886.28;5095106;28;20462;-77
2022/01/28 01:01:22;;;;;;;20.58;3.28;;;;;;;3.30;100.00;102886.09;5087595;28;20048;-76
2022/01/28 01:03:47;;;;;;;24.50;3.92;;;;;;;3.34;100.00;102882.88;5093479;28;20028;-77
2022/01/28 01:06:13;;;;;;;25.27;3.80;;;;;;;3.28;100.00;102880.75;5094485;28;20048;-77
2022/01/28 01:08:38;;;;;;;22.85;3.63;;;;;;;3.27;100.00;102888.50;5094825;28;20031;-76
2022/01/28 01:11:05;;;;;;;23.30;3.78;;;;;;;3.22;100.00;102887.28;5094970;28;20024;-77
2022/01/28 01:13:35;;;;;;;21.88;3.10;;;;;;;3.23;100.00;102882.16;5094566;28;20030;-77
2022/01/28 01:16:01;;;;;;;22.17;3.58;;;;;;;3.24;100.00;102896.13;5094420;28;20024;-77
2022/01/28 01:18:45;;;;;;;22.48;3.65;;;;;;;3.24;100.00;102894.41;5094704;28;20024;-77
2022/01/28 01:21:18;;;;;;;23.20;3.65;;;;;;;3.33;100.00;102891.50;5091175;28;20035;-77
2022/01/28 01:23:51;;;;;;;22.63;3.70;;;;;;;3.32;100.00;102889.72;5091209;28;20026;-76
2022/01/28 01:26:16;;;;;;;23.88;3.88;;;;;;;3.24;100.00;102885.69;5094342;28;20034;-75
2022/01/28 01:28:42;;;;;;;28.20;4.10;;;;;;;3.22;100.00;102895.09;5094821;28;20054;-70
2022/01/28 01:31:13;;;;;;;25.35;4.00;;;;;;;3.24;100.00;102889.19;5094256;28;20031;-70
2022/01/28 01:33:55;;;;;;;21.33;3.60;;;;;;;3.21;100.00;102904.66;5090101;28;20039;-71
2022/01/28 01:36:21;;;;;;;25.92;4.28;;;;;;;3.21;100.00;102909.00;5091764;28;20028;-71
2022/01/28 01:38:47;;;;;;;23.90;3.72;;;;;;;3.10;100.00;102906.56;5094309;28;20052;-70
2022/01/28 01:41:19;;;;;;;25.23;3.63;;;;;;;3.09;100.00;102904.75;5094037;28;20067;-71
2022/01/28 01:54:08;;;;;;;24.45;4.03;;;;;;;2.60;100.00;102940.56;5089200;28;20043;-70
2022/01/28 01:56:35;;;;;;;25.85;4.25;;;;;;;2.50;100.00;102940.72;5093280;28;20378;-70
2022/01/28 01:59:01;;;;;;;26.50;4.78;;;;;;;2.39;100.00;102943.47;5093936;28;20024;-72
2022/01/28 02:01:27;;;;;;;24.88;4.28;;;;;;;2.31;100.00;102956.75;5093809;28;20032;-70
2022/01/28 02:03:52;;;;;;;27.00;4.25;;;;;;;2.25;100.00;102965.06;5093568;28;20028;-71
2022/01/28 02:06:19;;;;;;;27.65;4.45;;;;;;;2.22;100.00;102965.75;5093675;28;20476;-71
2022/01/28 02:08:46;;;;;;;27.58;4.65;;;;;;;2.21;100.00;102973.47;5093489;28;20077;-70
2022/01/28 02:11:11;;;;;;;25.15;4.53;;;;;;;2.17;100.00;102972.34;5093408;28;20482;-70
2022/01/28 02:13:39;;;;;;;27.65;4.25;;;;;;;2.16;100.00;102975.75;5093514;28;20020;-76
2022/01/28 02:16:05;;;;;;;23.85;4.75;;;;;;;2.19;100.00;102977.66;5093326;28;20175;-77
2022/01/28 02:18:31;;;;;;;24.83;4.30;;;;;;;2.14;100.00;102972.13;5093546;28;20028;-74
2022/01/28 02:21:04;;;;;;;25.70;4.20;;;;;;;2.21;100.00;102983.91;5093450;28;20059;-75
2022/01/28 02:23:30;;;;;;;25.77;3.83;;;;;;;2.32;100.00;102980.38;5124355;27;20020;-75
2022/01/28 02:25:58;;;;;;;23.75;3.97;;;;;;;2.35;100.00;102984.91;5093404;28;20382;-74
2022/01/28 02:28:25;;;;;;;24.13;4.70;;;;;;;2.33;100.00;102979.59;5093472;28;20023;-75
2022/01/28 02:30:50;;;;;;;26.65;4.10;;;;;;;2.36;100.00;102977.19;5093314;28;20020;-75
2022/01/28 02:33:19;;;;;;;27.00;4.30;;;;;;;2.29;100.00;102982.75;5088541;28;20031;-73
2022/01/28 02:35:46;;;;;;;26.17;4.53;;;;;;;2.24;100.00;102990.25;5087424;28;20047;-74
2022/01/28 02:38:13;;;;;;;27.17;4.53;;;;;;;2.21;100.00;102989.13;5093283;28;20031;-75
2022/01/28 02:40:42;;;;;;;28.02;4.60;;;;;;;2.23;100.00;102988.44;5093191;28;20374;-75
2022/01/28 02:45:50;;;;;;;26.60;4.35;;;;;;;2.33;100.00;102979.59;5089111;28;20413;-74
2022/01/28 02:48:20;;;;;;;25.90;4.82;;;;;;;2.40;100.00;102984.44;5093386;28;20020;-75
2022/01/28 02:51:01;;;;;;;27.95;4.53;;;;;;;2.44;100.00;102994.28;5092869;28;20154;-74
2022/01/28 02:53:39;;;;;;;24.40;4.10;;;;;;;2.56;100.00;102995.97;5090249;28;20024;-74
2022/01/28 02:56:16;;;;;;;24.40;3.90;;;;;;;2.59;100.00;102994.50;5092806;28;20035;-77
2022/01/28 02:58:42;;;;;;;23.15;4.13;;;;;;;2.62;100.00;102996.41;5092811;28;20024;-76
2022/01/28 03:01:08;;;;;;;26.70;4.50;;;;;;;2.57;100.00;102997.78;5093049;28;20032;-76
2022/01/28 03:03:33;;;;;;;22.80;3.97;;;;;;;2.41;100.00;103004.50;5092594;28;20024;-74
2022/01/28 03:05:59;;;;;;;26.98;4.38;;;;;;;2.29;100.00;103008.88;5092168;28;20040;-76
2022/01/28 03:08:28;;;;;;;25.30;4.50;;;;;;;2.16;100.00;103008.78;5092928;28;20055;-77
2022/01/28 03:16:16;;;;;;;27.67;4.55;;;;;;;2.14;100.00;103018.16;5092438;28;20397;-76
2022/01/28 03:21:20;;;;;;;25.65;4.60;;;;;;;2.21;100.00;103016.16;5092563;28;20036;-77
2022/01/28 03:23:45;;;;;;;25.75;4.70;;;;;;;2.29;100.00;103024.53;5092514;28;20024;-76
2022/01/28 03:26:10;;;;;;;26.02;4.32;;;;;;;2.32;100.00;103022.13;5092731;28;20038;-77
2022/01/28 03:28:36;;;;;;;26.67;4.75;;;;;;;2.36;100.00;103029.41;5092978;28;20459;-77
2022/01/28 03:31:01;;;;;;;23.60;4.90;;;;;;;2.38;100.00;103027.78;5092274;28;20485;-77
2022/01/28 03:33:27;;;;;;;24.10;4.18;;;;;;;2.39;100.00;103032.22;5092543;28;20428;-72
2022/01/28 03:35:52;;;;;;;26.23;4.57;;;;;;;2.38;100.00;103017.34;5092496;28;20071;-73
2022/01/28 03:38:17;;;;;;;25.98;5.00;;;;;;;2.38;100.00;103019.06;5092567;28;20046;-72
2022/01/28 03:40:43;;;;;;;24.77;4.60;;;;;;;2.34;100.00;103022.25;5074050;28;20398;-72
2022/01/28 03:43:08;;;;;;;24.33;4.82;;;;;;;2.36;100.00;103021.56;5092388;28;20023;-72
2022/01/28 03:45:34;;;;;;;26.17;5.35;;;;;;;2.31;100.00;103024.63;5092304;28;20055;-73
2022/01/28 03:48:00;;;;;;;32.95;5.53;;;;;;;2.17;100.00;103032.38;5092504;28;20026;-72
2022/01/28 03:50:25;;;;;;;26.45;5.43;;;;;;;2.06;100.00;103033.28;5092230;28;20028;-72
2022/01/28 03:52:51;;;;;;;26.70;5.28;;;;;;;1.98;100.00;103032.72;5092208;28;20030;-72
2022/01/28 03:55:16;;;;;;;27.00;5.30;;;;;;;1.93;100.00;103034.06;5092310;28;20028;-72
2022/01/28 03:57:41;;;;;;;27.23;4.93;;;;;;;1.84;100.00;103033.38;5092229;28;20066;-72
2022/01/28 04:00:08;;;;;;;28.10;5.13;;;;;;;1.85;100.00;103035.19;5092298;28;20024;-72
2022/01/28 04:02:37;;;;;;;24.92;4.57;;;;;;;1.89;100.00;103037.22;5092217;28;20020;-73
2022/01/28 04:13:19;;;;;;;25.92;4.07;;;;;;;2.24;100.00;103057.19;5091984;28;20039;-71
2022/01/28 04:16:05;;;;;;;26.77;3.95;;;;;;;2.25;100.00;103048.59;5091977;28;20028;-71
2022/01/28 04:18:30;;;;;;;22.48;3.80;;;;;;;2.20;100.00;103052.53;5091678;28;20028;-72
2022/01/28 04:20:56;;;;;;;22.25;3.95;;;;;;;2.17;100.00;103060.16;5094505;28;20027;-72
2022/01/28 04:23:21;;;;;;;26.95;4.15;;;;;;;2.16;100.00;103047.91;5095833;28;20028;-72
2022/01/28 04:25:46;;;;;;;23.33;4.10;;;;;;;2.21;100.00;103051.75;5095381;28;20032;-72
2022/01/28 04:28:12;;;;;;;24.10;3.85;;;;;;;2.35;100.00;103056.28;5095863;28;20393;-71
2022/01/28 04:30:37;;;;;;;21.08;3.70;;;;;;;2.33;100.00;103052.69;5095381;28;20032;-71
2022/01/28 04:33:02;;;;;;;24.00;3.78;;;;;;;2.31;100.00;103066.41;5095670;28;20523;-71
2022/01/28 04:35:28;;;;;;;23.85;3.80;;;;;;;2.22;100.00;103062.31;5095458;28;20111;-71
2022/01/28 04:40:29;;;;;;;21.83;3.50;;;;;;;2.14;100.00;103065.16;5095089;28;20433;-71
2022/01/28 04:45:49;;;;;;;21.02;3.70;;;;;;;2.30;100.00;103070.72;5095498;28;20032;-75
2022/01/28 04:48:27;;;;;;;24.60;4.50;;;;;;;2.23;100.00;103077.19;5095126;28;20024;-74
2022/01/28 04:51:14;;;;;;;26.05;5.40;;;;;;;2.20;100.00;103069.13;5091408;28;20035;-75
2022/01/28 05:04:06;;;;;;;31.42;7.55;;;;;;;1.76;100.00;103078.84;5094686;28;20042;-76
2022/01/28 05:06:52;;;;;;;29.35;7.95;;;;;;;1.72;100.00;103070.78;5090525;28;20040;-75
2022/01/28 05:23:18;;;;;;;33.22;9.90;;;;;;;1.38;100.00;103095.94;5094440;28;20040;-76
2022/01/28 05:28:05;;;;;;;30.50;11.23;;;;;;;1.07;100.00;103113.50;5094435;28;20047;-74
2022/01/28 05:30:31;;;;;;;33.30;12.50;;;;;;;1.14;100.00;103118.41;5094348;28;20028;-76
2022/01/28 05:32:56;;;;;;;34.92;12.18;;;;;;;1.12;100.00;103113.09;5094067;28;20390;-76
2022/01/28 05:35:22;;;;;;;37.40;13.25;;;;;;;1.15;100.00;103109.78;5091528;28;20414;-71
2022/01/28 05:37:47;;;;;;;35.60;13.82;;;;;;;1.15;100.00;103115.00;5091495;28;20021;-72
2022/01/28 05:40:13;;;;;;;40.38;14.50;;;;;;;1.18;100.00;103110.94;5093929;28;20467;-72
2022/01/28 05:42:38;;;;;;;34.78;13.30;;;;;;;1.17;100.00;103116.03;5094101;28;20032;-72
2022/01/28 05:45:04;;;;;;;35.30;13.20;;;;;;;1.19;100.00;103127.47;5093889;28;20352;-72
2022/01/28 05:47:32;;;;;;;33.72;13.52;;;;;;;1.25;100.00;103133.16;5093792;28;20055;-72
2022/01/28 05:49:58;;;;;;;37.40;14.00;;;;;;;1.23;100.00;103133.88;5094161;28;20026;-71
2022/01/28 05:52:23;;;;;;;36.50;12.68;;;;;;;1.29;100.00;103139.56;5093830;28;20123;-72
2022/01/28 05:54:48;;;;;;;33.25;12.63;;;;;;;1.26;100.00;103140.22;5093584;28;20055;-71
2022/01/28 05:57:14;;;;;;;34.22;12.25;;;;;;;1.27;100.00;103134.22;5093930;28;20455;-73
2022/01/28 05:59:39;;;;;;;32.75;11.70;;;;;;;1.25;100.00;103143.59;5093701;28;20081;-73
2022/01/28 06:02:04;;;;;;;35.95;12.07;;;;;;;1.12;100.00;103141.75;5093609;28;20028;-73
2022/01/28 06:04:30;;;;;;;33.65;13.25;;;;;;;1.05;100.00;103149.84;5093807;28;20118;-71
2022/01/28 06:06:55;;;;;;;33.53;12.43;;;;;;;0.89;100.00;103157.19;5093246;28;20075;-72
2022/01/28 06:09:20;;;;;;;36.72;12.50;;;;;;;0.79;100.00;103158.19;5093524;28;20028;-72
2022/01/28 06:11:46;;;;;;;33.72;12.35;;;;;;;0.67;100.00;103155.47;5118703;27;20069;-68
2022/01/28 06:14:12;;;;;;;38.15;11.55;;;;;;;0.57;100.00;103153.81;5090367;28;20512;-68
2022/01/28 06:16:37;;;;;;;36.45;13.60;;;;;;;0.61;100.00;103174.13;5088754;28;20116;-68
2022/01/28 06:19:03;;;;;;;35.63;13.70;;;;;;;0.61;100.00;103178.38;5091521;28;20048;-69
2022/01/28 06:21:28;;;;;;;36.38;12.55;;;;;;;0.59;100.00;103167.84;5091434;28;20031;-75
2022/01/28 06:23:53;;;;;;;36.83;13.20;;;;;;;0.55;100.00;103167.47;5092035;28;20012;-75
2022/01/28 06:26:19;;;;;;;34.13;14.80;;;;;;;0.58;100.00;103176.44;5090020;28;20114;-74
2022/01/28 06:28:44;;;;;;;37.35;15.52;;;;;;;0.56;100.00;103178.03;5091716;28;20594;-74
2022/01/28 06:31:10;;;;;;;42.63;15.93;;;;;;;0.58;100.00;103181.66;5091893;28;20066;-79
2022/01/28 06:33:36;;;;;;;38.05;15.30;;;;;;;0.57;100.00;103189.34;5091022;28;20132;-75
2022/01/28 06:36:03;;;;;;;41.40;15.98;;;;;;;0.51;100.00;103192.34;5091762;28;20049;-79
2022/01/28 06:38:29;;;;;;;42.92;16.00;;;;;;;0.52;100.00;103197.69;5091719;28;20421;-76
2022/01/28 06:40:54;;;;;;;36.25;15.52;;;;;;;0.49;100.00;103197.41;5091074;28;20085;-77
2022/01/28 06:43:19;;;;;;;41.85;16.42;;;;;;;0.41;100.00;103197.56;5091053;28;20036;-78
2022/01/28 06:45:45;;;;;;;41.85;16.20;;;;;;;0.32;100.00;103203.84;5091534;28;20112;-80
2022/01/28 06:48:11;;;;;;;38.38;15.73;;;;;;;0.30;100.00;103212.28;5091639;28;20020;-77
2022/01/28 06:50:38;;;;;;;40.13;14.73;;;;;;;0.27;100.00;103210.34;5091519;28;20099;-75
2022/01/28 06:53:04;;;;;;;43.25;16.10;;;;;;;0.25;100.00;103209.31;5087594;28;20020;-75
2022/01/28 06:55:29;;;;;;;40.53;15.35;;;;;;;0.31;100.00;103207.22;5091244;28;20047;-77
2022/01/28 06:57:56;;;;;;;43.17;15.05;;;;;;;0.38;100.00;103218.13;5090735;28;20157;-75
2022/01/28 07:00:22;;;;;;;40.00;15.75;;;;;;;0.33;100.00;103231.66;5091479;28;20028;-75
2022/01/28 07:02:48;;;;;;;35.80;15.43;;;;;;;0.29;100.00;103234.81;5091605;28;20582;-76
2022/01/28 07:05:14;;;;;;;36.97;14.80;;;;;;;0.32;100.00;103245.47;5090352;28;20405;-74
2022/01/28 07:07:39;;;;;;;36.80;15.18;;;;;;;0.42;100.00;103254.94;5091040;28;20051;-74
2022/01/28 07:10:05;;;;;;;41.20;15.55;;;;;;;0.32;100.00;103261.09;5089399;28;20078;-73
2022/01/28 07:12:30;;;;;;;38.20;14.23;;;;;;;0.32;100.00;103255.88;5091319;28;20023;-78
2022/01/28 07:14:56;;;;;;;37.95;14.05;;;;;;;0.15;100.00;103253.53;5090668;28;20583;-74
2022/01/28 07:17:21;;;;;;;35.75;13.60;;;;;;;-0.07;100.00;103264.69;5091432;28;20413;-77
2022/01/28 07:19:46;;;;;;;33.03;13.15;;;;;;;-0.19;100.00;103268.81;5091177;28;20105;-76
2022/01/28 07:22:12;;;;;;;38.08;13.43;;;;;;;-0.06;100.00;103273.41;5090733;28;20162;-76
2022/01/28 07:24:38;;;;;;;37.28;14.55;;;;;;;-0.02;100.00;103266.00;5090738;28;20038;-76
2022/01/28 07:27:03;;;;;;;38.17;14.40;;;;;;;0.03;100.00;103266.41;5091444;28;20027;-76
2022/01/28 07:29:31;;;;;;;39.78;15.20;;;;;;;0.01;100.00;103280.06;5091088;28;20020;-76
2022/01/28 07:31:57;;;;;;;40.28;14.85;;;;;;;-0.01;100.00;103288.63;5090427;28;20032;-76
2022/01/28 07:34:23;;;;;;;42.47;15.20;;;;;;;0.04;100.00;103291.63;5086383;28;20028;-73
2022/01/28 07:36:49;;;;;;;37.33;15.85;;;;;;;0.05;100.00;103292.56;5090241;28;20558;-68
2022/01/28 07:39:14;;;;;;;40.45;16.23;;;;;;;0.08;100.00;103285.91;5090946;28;20099;-68
2022/01/28 07:41:39;;;;;;;42.05;16.50;;;;;;;0.14;100.00;103299.44;5090781;28;20024;-69
2022/01/28 07:44:06;;;;;;;39.30;16.02;;;;;;;0.10;100.00;103299.06;5090411;28;20100;-68
2022/01/28 07:46:32;;;;;;;44.47;16.55;;;;;;;0.13;100.00;103299.31;5090619;28;20059;-68
2022/01/28 07:48:57;;;;;;;39.58;16.08;;;;;;;0.12;100.00;103295.81;5090771;28;20043;-68
2022/01/28 07:51:23;;;;;;;38.08;16.08;;;;;;;0.23;100.00;103294.13;5089884;28;20016;-68
2022/01/28 07:53:49;;;;;;;40.33;16.20;;;;;;;0.30;100.00;103291.25;5083339;28;20032;-67
2022/01/28 07:56:15;;;;;;;36.10;16.52;;;;;;;0.30;100.00;103295.56;5093443;28;20054;-69
2022/01/28 07:58:41;;;;;;;42.08;16.20;;;;;;;0.18;100.00;103298.03;5093106;28;20032;-68
2022/01/28 08:01:06;;;;;;;40.30;16.48;;;;;;;0.21;100.00;103300.88;5093375;28;20020;-68
2022/01/28 08:03:32;;;;;;;38.67;15.98;;;;;;;0.22;100.00;103294.91;5090144;28;20030;-70
2022/01/28 08:05:57;;;;;;;39.95;16.75;;;;;;;0.22;100.00;103309.59;5094418;28;20028;-71
2022/01/28 08:08:22;;;;;;;42.42;17.65;;;;;;;0.21;100.00;103313.00;5094351;28;20044;-70
2022/01/28 08:10:48;;;;;;;37.53;17.20;;;;;;;0.24;100.00;103319.38;5093979;28;20115;-72
2022/01/28 08:13:14;;;;;;;40.88;18.15;;;;;;;0.25;100.00;103316.00;5094089;28;20027;-70
2022/01/28 08:15:40;;;;;;;39.95;17.50;;;;;;;0.29;100.00;103318.09;5090737;28;20108;-73
2022/01/28 08:18:08;;;;;;;44.42;18.95;;;;;;;0.37;100.00;103333.44;5091581;28;20047;-74
2022/01/28 08:20:33;;;;;;;43.83;20.20;;;;;;;0.50;100.00;103328.50;5093024;28;20300;-76
2022/01/28 08:23:00;;;;;;;39.33;20.58;;;;;;;0.59;100.00;103347.50;5093301;28;20024;-75
2022/01/28 08:25:27;;;;;;;45.35;21.60;;;;;;;0.74;100.00;103344.38;5094247;28;20043;-73
2022/01/28 08:27:54;;;;;;;48.40;23.30;;;;;;;0.92;100.00;103352.81;5094421;28;20024;-72
2022/01/28 08:30:22;;;;;;;42.60;22.48;;;;;;;1.01;100.00;103346.66;5094444;28;20036;-72
2022/01/28 08:32:49;;;;;;;44.70;22.38;;;;;;;1.14;100.00;103350.31;5090420;28;20494;-76
2022/01/28 08:35:15;;;;;;;40.90;22.35;;;;;;;1.30;100.00;103356.00;5089800;28;20042;-73
2022/01/28 08:37:41;;;;;;;40.50;22.40;;;;;;;1.43;100.00;103355.31;5094003;28;20028;-72
2022/01/28 08:40:09;;;;;;;40.58;20.92;;;;;;;1.63;100.00;103350.78;5094018;28;20044;-71
2022/01/28 08:42:36;;;;;;;36.63;19.92;;;;;;;1.71;100.00;103355.84;5091379;28;20364;-72
2022/01/28 08:45:01;;;;;;;34.25;17.70;;;;;;;1.83;100.00;103360.22;5093088;28;20036;-72
2022/01/28 08:47:27;;;;;;;35.35;15.68;;;;;;;1.97;100.00;103370.06;5093416;28;20028;-73
2022/01/28 08:49:52;;;;;;;31.25;14.73;;;;;;;2.15;100.00;103360.16;5093846;28;20058;-73
2022/01/28 08:52:17;;;;;;;34.20;14.07;;;;;;;2.32;100.00;103365.81;5093562;28;20054;-75
2022/01/28 08:54:43;;;;;;;32.88;13.30;;;;;;;2.46;100.00;103365.16;5090493;28;20024;-76
2022/01/28 08:57:09;;;;;;;31.77;12.32;;;;;;;2.56;100.00;103365.13;5093606;28;20024;-76
2022/01/28 08:59:36;;;;;;;28.67;11.02;;;;;;;2.68;100.00;103364.22;5093944;28;20027;-76
2022/01/28 09:02:02;;;;;;;28.38;11.15;;;;;;;2.89;100.00;103359.75;5093620;28;20085;-74
2022/01/28 09:04:27;;;;;;;28.60;11.20;;;;;;;3.16;100.00;103357.38;5092565;28;20997;-75
2022/01/28 09:06:52;;;;;;;29.75;11.10;;;;;;;3.34;100.00;103355.25;5093130;28;20044;-75
2022/01/28 09:09:19;;;;;;;28.75;11.07;;;;;;;3.48;100.00;103367.59;5088823;28;20487;-75
2022/01/28 09:14:12;;;;;;;29.50;10.75;;;;;;;3.60;100.00;103367.63;5089957;28;20111;-72
2022/01/28 09:16:38;;;;;;;29.77;11.20;;;;;;;3.63;100.00;103360.88;5093858;28;20395;-72
2022/01/28 09:19:03;;;;;;;27.77;10.70;;;;;;;3.59;100.00;103358.84;5093139;28;20028;-72
2022/01/28 09:21:29;;;;;;;31.48;11.10;;;;;;;3.63;100.00;103360.00;5093044;28;20114;-73
2022/01/28 09:23:54;;;;;;;30.58;11.25;;;;;;;3.67;100.00;103359.41;5092265;28;20471;-73
2022/01/28 09:26:19;;;;;;;29.33;11.63;;;;;;;3.74;100.00;103366.00;5093294;28;20057;-71
2022/01/28 09:28:45;;;;;;;30.20;11.93;;;;;;;3.83;100.00;103375.41;5093019;28;20031;-71
2022/01/28 09:31:10;;;;;;;31.25;11.65;;;;;;;3.94;100.00;103375.28;5093218;28;20119;-70
2022/01/28 09:33:37;;;;;;;30.45;11.05;;;;;;;4.02;100.00;103376.75;5092146;28;20031;-70
2022/01/28 09:36:03;;;;;;;30.50;12.25;;;;;;;4.14;100.00;103390.69;5092487;28;20382;-70
2022/01/28 09:38:29;;;;;;;29.48;11.50;;;;;;;4.28;100.00;103381.22;5092669;28;20028;-70
2022/01/28 09:40:56;;;;;;;31.48;11.90;;;;;;;4.46;100.00;103380.69;5092955;28;20140;-70
2022/01/28 09:43:25;;;;;;;30.38;11.40;;;;;;;4.65;100.00;103372.41;5092190;28;20049;-72
2022/01/28 09:45:50;;;;;;;29.75;12.10;;;;;;;4.67;100.00;103378.63;5092568;28;20046;-70
2022/01/28 09:48:18;;;;;;;30.35;11.63;;;;;;;4.79;100.00;103374.25;5093020;28;20413;-71
2022/01/28 09:50:46;;;;;;;28.48;10.93;;;;;;;4.80;100.00;103380.41;5092494;28;20056;-72
2022/01/28 09:53:11;;;;;;;28.88;10.68;;;;;;;4.91;100.00;103386.34;5088030;28;20360;-76
2022/01/28 09:55:37;;;;;;;29.88;10.73;;;;;;;4.81;100.00;103388.38;5092442;28;20030;-76
2022/01/28 09:58:02;;;;;;;31.70;11.35;;;;;;;4.84;100.00;103396.44;5090552;28;20027;-75
2022/01/28 10:00:30;;;;;;;28.10;10.98;;;;;;;5.07;100.00;103399.72;5092165;28;20027;-74
2022/01/28 10:03:01;;;;;;;28.02;11.00;;;;;;;5.33;100.00;103403.16;5090142;28;20020;-72
2022/01/28 10:05:37;;;;;;;29.65;10.65;;;;;;;5.40;100.00;103394.91;5087096;28;20035;-69
2022/01/28 10:08:13;;;;;;;27.35;10.27;;;;;;;5.75;100.00;103396.28;5089526;28;20044;-68
2022/01/28 10:10:49;;;;;;;29.90;10.77;;;;;;;6.22;100.00;103398.47;5091521;28;20020;-71
2022/01/28 10:13:30;;;;;;;28.00;9.73;;;;;;;6.41;100.00;103391.75;5091486;28;20375;-72
2022/01/28 10:16:06;;;;;;;26.80;9.05;;;;;;;6.45;100.00;103396.34;5091647;28;20120;-69
2022/01/28 10:18:37;;;;;;;27.60;9.25;;;;;;;6.52;100.00;103398.56;5085999;28;20035;-78
2022/01/28 10:21:22;;;;;;;27.55;9.32;;;;;;;6.78;100.00;103391.34;5092033;28;20088;-76
2022/01/28 10:24:08;;;;;;;27.90;8.43;;;;;;;6.92;100.00;103395.72;5090770;28;20663;-80
2022/01/28 10:26:59;;;;;;;27.05;9.00;;;;;;;6.85;100.00;103398.81;5087309;28;20428;-77
2022/01/28 10:29:26;;;;;;;25.77;8.65;;;;;;;7.02;100.00;103397.19;5091619;28;20111;-77
2022/01/28 10:31:56;;;;;;;26.83;8.20;;;;;;;7.65;100.00;103402.59;5091854;28;20116;-78
2022/01/28 10:34:36;;;;;;;28.60;7.95;;;;;;;8.00;100.00;103409.81;5090543;28;20039;-78
2022/01/28 10:37:21;;;;;;;30.00;8.52;;;;;;;7.95;100.00;103407.75;5091904;28;20363;-77
2022/01/28 10:39:52;;;;;;;29.92;8.40;;;;;;;7.62;100.00;103412.94;5087979;28;20043;-79
2022/01/28 10:42:31;;;;;;;24.92;7.85;;;;;;;7.65;100.00;103414.00;5091762;28;20494;-76
2022/01/28 10:45:11;;;;;;;26.92;8.63;;;;;;;8.02;100.00;103405.56;5091501;28;20070;-75
2022/01/28 10:47:53;;;;;;;27.02;7.70;;;;;;;8.09;100.00;103411.16;5091407;28;20020;-77
2022/01/28 10:50:19;;;;;;;26.98;8.10;;;;;;;8.04;100.00;103397.75;5090483;28;20109;-76
2022/01/28 10:52:46;;;;;;;26.58;7.78;;;;;;;8.12;100.00;103400.78;5091422;28;20055;-76
2022/01/28 10:55:18;;;;;;;26.02;8.13;;;;;;;8.60;100.00;103396.41;5090863;28;20028;-76
2022/01/28 10:58:04;;;;;;;;;;;;;;;9.22;100.00;103394.31;5092213;28;20161;-76
2022/01/28 11:00:32;;;;;;;25.48;7.53;;;;;;;9.56;100.00;103396.88;5090624;28;19920;-75
2022/01/28 11:03:00;;;;;;;23.40;6.60;;;;;;;10.35;93.80;103392.69;5090434;28;20417;-76
2022/01/28 11:05:29;;;;;;;26.05;6.55;;;;;;;10.88;92.13;103376.50;5090599;28;20024;-75
2022/01/28 11:07:54;;;;;;;24.60;6.20;;;;;;;11.47;89.02;103383.41;5091385;28;20046;-77
2022/01/28 11:10:20;;;;;;;22.33;5.88;;;;;;;11.67;80.22;103391.28;5086359;28;20028;-76
2022/01/28 11:12:46;;;;;;;23.27;5.80;;;;;;;11.88;79.88;103383.25;5088053;28;20103;-79
2022/01/28 11:15:12;;;;;;;22.85;5.50;;;;;;;12.32;76.43;103376.16;5090948;28;20123;-79
2022/01/28 11:17:37;;;;;;;25.02;5.55;;;;;;;12.64;75.38;103370.19;5091273;28;20888;-78
2022/01/28 11:20:05;;;;;;;24.55;5.97;;;;;;;13.34;73.82;103365.50;5091038;28;20151;-73
2022/01/28 11:22:54;;;;;;;23.30;5.80;;;;;;;13.53;72.09;103364.41;5091185;28;20040;-78
2022/01/28 11:25:40;;;;;;;22.75;5.20;;;;;;;13.65;67.11;103351.50;5090885;28;20048;-77
2022/01/28 11:28:08;;;;;;;23.80;5.22;;;;;;;13.96;66.51;103355.09;5021647;28;20520;-78
2022/01/28 11:30:33;;;;;;;22.35;4.65;;;;;;;13.36;66.04;103343.50;5006148;28;20412;-79
2022/01/28 11:33:08;;;;;;;24.73;5.55;;;;;;;13.74;67.15;103345.56;5019903;28;20045;-76
2022/01/28 11:35:40;;;;;;;24.73;5.20;;;;;;;13.70;68.04;103339.28;5024990;28;20120;-77
2022/01/28 11:38:24;;;;;;;24.83;5.05;;;;;;;14.20;67.12;103349.59;5021680;28;20080;-77
2022/01/28 11:41:01;;;;;;;22.33;5.00;;;;;;;13.82;62.37;103333.44;5023928;28;20131;-75
2022/01/28 11:43:27;;;;;;;23.42;5.10;;;;;;;13.97;62.48;103332.09;5023123;28;20026;-76
2022/01/28 11:46:22;;;;;;;22.65;4.90;;;;;;;14.48;59.77;103331.75;5019771;28;20033;-76
2022/01/28 11:49:02;;;;;;;21.42;4.45;;;;;;;14.99;59.39;103335.81;5022002;28;20061;-73
2022/01/28 11:51:39;;;;;;;20.80;4.78;;;;;;;14.73;60.98;103332.47;5016413;28;20105;-75
2022/01/28 11:54:07;;;;;;;21.08;4.40;;;;;;;14.63;58.89;103323.31;5011238;28;20021;-76
2022/01/28 11:56:37;;;;;;;21.45;4.53;;;;;;;14.35;59.80;103330.50;5015116;28;20880;-75
2022/01/28 11:59:05;;;;;;;22.73;4.18;;;;;;;14.07;58.69;103334.16;5011521;28;20037;-74
2022/01/28 12:01:36;;;;;;;19.17;4.03;;;;;;;14.78;58.52;103345.03;5011598;28;20032;-73
2022/01/28 12:04:31;;;;;;;21.67;4.57;;;;;;;13.89;62.09;103340.72;5014564;28;20619;-76
2022/01/28 12:07:18;;;;;;;18.98;4.45;;;;;;;14.45;60.13;103329.91;5092361;28;20117;-72
2022/01/28 12:09:54;;;;;;;22.38;4.10;;;;;;;14.79;55.47;103332.63;5092618;28;20027;-70
2022/01/28 12:12:42;;;;;;;19.98;4.43;;;;;;;12.95;58.25;103336.78;5092610;28;20352;-71
2022/01/28 12:15:16;;;;;;;21.38;4.32;;;;;;;11.24;65.33;103331.25;5078360;28;20036;-70
2022/01/28 12:17:44;;;;;;;19.63;4.28;;;;;;;10.49;68.85;103334.25;5094079;28;20034;-70
2022/01/28 12:20:15;;;;;;;21.92;4.63;;;;;;;9.45;72.75;103323.25;5093528;28;20044;-72
2022/01/28 12:22:59;;;;;;;21.42;4.57;;;;;;;8.91;75.79;103305.66;5092719;28;20042;-73
2022/01/28 12:25:36;;;;;;;20.00;4.32;;;;;;;8.81;75.82;103306.03;5091961;28;20032;-74
2022/01/28 12:28:16;;;;;;;20.30;3.70;;;;;;;10.12;70.03;103292.06;5093488;28;20036;-76
2022/01/28 12:30:44;;;;;;;18.35;3.60;;;;;;;10.99;65.00;103290.53;5093701;28;20028;-73
2022/01/28 12:33:10;;;;;;;22.15;3.63;;;;;;;12.08;60.34;103293.94;5092508;28;20357;-73
2022/01/28 12:35:37;;;;;;;20.02;3.40;;;;;;;13.02;58.93;103285.72;5092182;28;20027;-73
2022/01/28 12:38:04;;;;;;;20.02;3.67;;;;;;;14.97;52.82;103284.28;5093314;28;20540;-75
2022/01/28 12:40:36;;;;;;;18.98;3.72;;;;;;;16.06;48.31;103285.81;5093827;28;20344;-75
2022/01/28 12:43:03;;;;;;;22.05;4.90;;;;;;;16.39;46.24;103277.56;5092573;28;20024;-74
2022/01/28 12:45:28;;;;;;;19.65;5.15;;;;;;;15.88;45.96;103272.13;5093811;28;20055;-75
2022/01/28 12:47:53;;;;;;;21.30;5.22;;;;;;;13.28;52.36;103283.91;5093771;28;20488;-77
2022/01/28 12:50:19;;;;;;;21.38;5.28;;;;;;;12.80;56.08;103281.41;5093557;28;20028;-76